createdAt,value
2018-08-13T00:03:48.408Z,99577.22
2018-08-13T00:08:52.070Z,99574.00
2018-08-13T00:13:55.716Z,99578.06
2018-08-13T00:18:59.399Z,99572.14
2018-08-13T00:24:03.054Z,99567.89
2018-08-13T00:29:06.671Z,99565.19
2018-08-13T00:34:10.336Z,99557.56
2018-08-13T00:39:14.422Z,99551.30
2018-08-13T00:44:18.120Z,99554.85
2018-08-13T00:49:21.884Z,99549.53
2018-08-13T00:54:25.636Z,99544.02
2018-08-13T00:59:29.272Z,99542.44
2018-08-13T01:04:32.933Z,99539.55
2018-08-13T01:09:36.587Z,99533.47
2018-08-13T01:14:40.169Z,99528.87
2018-08-13T01:19:43.784Z,99520.02
2018-08-13T01:24:47.436Z,99506.13
2018-08-13T01:29:50.991Z,99500.37
2018-08-13T01:34:54.574Z,99497.09
2018-08-13T01:39:58.635Z,99501.81
2018-08-13T01:45:05.256Z,99499.77
2018-08-13T01:50:10.661Z,99499.39
2018-08-13T01:55:14.350Z,99500.56
2018-08-13T02:00:17.959Z,99500.00
2018-08-13T02:05:21.572Z,99499.49
2018-08-13T02:10:25.225Z,99503.37
2018-08-13T02:15:28.917Z,99489.13
2018-08-13T02:20:32.624Z,99490.27
2018-08-13T02:25:36.187Z,99488.81
2018-08-13T02:35:49.082Z,99484.91
2018-08-13T02:40:52.743Z,99468.48
2018-08-13T02:45:56.416Z,99466.41
2018-08-13T02:51:00.000Z,99466.41
2018-08-13T02:56:03.690Z,99458.44
2018-08-13T03:01:07.382Z,99458.94
2018-08-13T03:06:11.054Z,99459.95
2018-08-13T03:11:14.721Z,99456.02
2018-08-13T03:16:18.314Z,99454.13
2018-08-13T03:21:21.956Z,99436.94
2018-08-13T03:26:25.845Z,99437.89
2018-08-13T03:31:29.457Z,99445.09
2018-08-13T03:36:33.188Z,99440.97
2018-08-13T03:41:36.912Z,99434.64
2018-08-13T03:46:40.593Z,99431.56
2018-08-13T03:51:44.489Z,99430.42
2018-08-13T03:56:48.209Z,99430.13
2018-08-13T04:01:51.827Z,99436.09
2018-08-13T04:11:58.129Z,99439.81
2018-08-13T04:17:03.512Z,99441.40
2018-08-13T04:22:07.185Z,99439.48
2018-08-13T04:27:10.810Z,99433.00
2018-08-13T04:32:14.451Z,99436.80
2018-08-13T04:37:18.085Z,99438.38
2018-08-13T04:42:21.725Z,99440.08
2018-08-13T04:47:26.020Z,99444.37
2018-08-13T04:52:29.627Z,99440.20
2018-08-13T04:57:33.398Z,99445.59
2018-08-13T05:02:37.110Z,99452.67
2018-08-13T05:07:40.828Z,99445.95
2018-08-13T05:12:44.485Z,99445.59
2018-08-13T05:17:48.120Z,99449.27
2018-08-13T05:22:51.750Z,99442.41
2018-08-13T05:27:55.364Z,99454.28
2018-08-13T05:32:59.088Z,99440.93
2018-08-13T05:38:02.684Z,99434.69
2018-08-13T05:43:06.758Z,99444.71
2018-08-13T05:48:10.555Z,99435.64
2018-08-13T05:53:14.171Z,99444.84
2018-08-13T05:58:17.785Z,99440.55
2018-08-13T06:03:21.457Z,99445.89
2018-08-13T06:08:25.080Z,99432.78
2018-08-13T06:13:28.816Z,99435.87
2018-08-13T06:18:32.555Z,99431.53
2018-08-13T06:23:36.191Z,99439.85
2018-08-13T06:28:39.844Z,99432.44
2018-08-13T06:33:43.478Z,99432.50
2018-08-13T06:38:47.145Z,99429.63
2018-08-13T06:43:50.804Z,99423.51
2018-08-13T06:48:55.122Z,99419.29
2018-08-13T06:53:58.829Z,99408.58
2018-08-13T06:59:02.448Z,99402.51
2018-08-13T07:04:06.074Z,99402.68
2018-08-13T07:09:11.065Z,99395.95
2018-08-13T07:14:14.677Z,99399.50
2018-08-13T07:19:18.362Z,99399.05
2018-08-13T07:24:21.993Z,99395.19
2018-08-13T07:29:25.661Z,99391.37
2018-08-13T07:34:29.515Z,99382.05
2018-08-13T07:39:33.185Z,99383.77
2018-08-13T07:44:36.848Z,99392.24
2018-08-13T07:49:40.472Z,99386.33
2018-08-13T07:54:44.067Z,99373.68
2018-08-13T07:59:47.789Z,99367.39
2018-08-13T08:04:51.430Z,99362.19
2018-08-13T08:09:54.992Z,99368.24
2018-08-13T08:14:58.692Z,99366.66
2018-08-13T08:20:02.448Z,99359.91
2018-08-13T08:25:12.430Z,99354.61
2018-08-13T08:30:16.109Z,99347.99
2018-08-13T08:35:19.825Z,99345.39
2018-08-13T08:40:23.535Z,99339.71
2018-08-13T08:45:28.095Z,99347.83
2018-08-13T08:50:31.850Z,99348.50
2018-08-13T08:55:35.558Z,99347.75
2018-08-13T09:00:39.227Z,99338.94
2018-08-13T09:05:42.906Z,99340.14
2018-08-13T09:10:46.529Z,99340.14
2018-08-13T09:15:50.223Z,99335.06
2018-08-13T09:21:04.927Z,99331.20
2018-08-13T09:26:19.660Z,99326.95
2018-08-13T09:31:34.401Z,99322.91
2018-08-13T09:36:38.142Z,99310.73
2018-08-13T09:41:41.717Z,99312.93
2018-08-13T09:46:45.400Z,99312.77
2018-08-13T09:51:48.984Z,99304.00
2018-08-13T09:56:52.625Z,99300.16
2018-08-13T10:01:56.330Z,99296.45
2018-08-13T10:06:59.932Z,99293.58
2018-08-13T10:12:03.706Z,99283.33
2018-08-13T10:17:07.298Z,99280.62
2018-08-13T10:22:10.900Z,99285.53
2018-08-13T10:27:14.598Z,99279.45
2018-08-13T10:32:18.190Z,99285.43
2018-08-13T10:37:21.806Z,99275.17
2018-08-13T10:42:25.432Z,99278.78
2018-08-13T10:47:29.037Z,99290.30
2018-08-13T10:52:32.711Z,99284.87
2018-08-13T10:57:36.396Z,99279.31
2018-08-13T11:02:40.017Z,99272.94
2018-08-13T11:07:43.738Z,99270.80
2018-08-13T11:12:47.434Z,99267.75
2018-08-13T11:17:51.075Z,99261.33
2018-08-13T11:22:54.779Z,99255.64
2018-08-13T11:28:04.638Z,99258.01
2018-08-13T11:33:08.303Z,99251.92
2018-08-13T11:38:11.872Z,99254.00
2018-08-13T11:43:15.519Z,99238.10
2018-08-13T11:48:19.163Z,99237.44
2018-08-13T11:53:22.845Z,99232.52
2018-08-13T11:58:26.549Z,99225.09
2018-08-13T12:03:30.538Z,99222.89
2018-08-13T12:08:34.216Z,99213.76
2018-08-13T12:13:37.871Z,99242.39
2018-08-13T12:18:41.537Z,99234.55
2018-08-13T12:23:45.143Z,99256.66
2018-08-13T12:28:48.770Z,99267.30
2018-08-13T12:33:52.530Z,99274.08
2018-08-13T12:38:56.170Z,99280.47
2018-08-13T12:43:59.870Z,99282.20
2018-08-13T12:49:03.600Z,99282.67
2018-08-13T12:54:07.436Z,99288.08
2018-08-13T12:59:11.091Z,99289.44
2018-08-13T13:04:14.790Z,99302.02
2018-08-13T13:09:18.553Z,99312.16
2018-08-13T13:19:37.608Z,99318.69
2018-08-13T13:24:41.312Z,99323.53
2018-08-13T13:29:45.004Z,99335.88
2018-08-13T13:34:48.660Z,99339.73
2018-08-13T13:39:52.402Z,99339.89
2018-08-13T13:44:56.062Z,99369.68
2018-08-13T13:49:59.789Z,99366.97
2018-08-13T13:55:05.930Z,99374.59
2018-08-13T14:00:20.551Z,99366.63
2018-08-13T14:05:24.425Z,99374.75
2018-08-13T14:10:28.202Z,99380.16
2018-08-13T14:15:31.867Z,99376.11
2018-08-13T14:20:35.627Z,99371.53
2018-08-13T14:25:39.290Z,99383.37
2018-08-13T14:30:43.075Z,99405.38
2018-08-13T14:35:47.213Z,99403.69
2018-08-13T14:40:51.256Z,99391.00
2018-08-13T14:45:55.044Z,99399.12
2018-08-13T14:50:58.757Z,99397.20
2018-08-13T14:56:02.440Z,99383.32
2018-08-13T15:01:06.069Z,99366.06
2018-08-13T15:06:09.691Z,99359.45
2018-08-13T15:11:13.554Z,99345.65
2018-08-13T15:16:17.339Z,99345.20
2018-08-13T15:21:21.565Z,99300.02
2018-08-13T15:26:25.382Z,99320.55
2018-08-13T15:31:29.048Z,99335.33
2018-08-13T15:36:32.794Z,99352.98
2018-08-13T15:41:36.511Z,99347.78
2018-08-13T15:46:40.108Z,99329.84
2018-08-13T15:51:43.880Z,99318.21
2018-08-13T15:56:47.506Z,99320.76
2018-08-13T16:01:51.124Z,99322.67
2018-08-13T16:06:54.807Z,99308.33
2018-08-13T16:11:58.481Z,99308.88
2018-08-13T16:17:02.195Z,99302.83
2018-08-13T16:22:06.083Z,99304.42
2018-08-13T16:27:09.794Z,99299.69
2018-08-13T16:32:14.988Z,99302.33
2018-08-13T16:37:19.647Z,99292.99
2018-08-13T16:42:24.241Z,99297.02
2018-08-13T16:47:28.904Z,99296.42
2018-08-13T16:52:33.406Z,99282.64
2018-08-13T16:57:38.353Z,99308.13
2018-08-13T17:02:42.204Z,99303.38
2018-08-13T17:07:46.337Z,99310.32
2018-08-13T17:12:51.541Z,99309.38
2018-08-13T17:17:58.191Z,99314.38
2018-08-13T17:23:03.218Z,99314.83
2018-08-13T17:28:08.178Z,99319.22
2018-08-13T17:33:13.019Z,99329.50
2018-08-13T17:38:17.855Z,99340.39
2018-08-13T17:43:23.099Z,99350.45
2018-08-13T17:48:26.911Z,99354.69
2018-08-13T17:53:31.483Z,99363.76
2018-08-13T17:58:35.805Z,99368.78
2018-08-13T18:03:40.750Z,99365.06
2018-08-13T18:08:45.432Z,99367.20
2018-08-13T18:13:51.324Z,99368.23
2018-08-13T18:18:56.250Z,99358.17
2018-08-13T18:24:00.994Z,99362.34
2018-08-13T18:29:05.768Z,99355.08
2018-08-13T18:34:10.748Z,99347.91
2018-08-13T18:39:14.368Z,99344.28
2018-08-13T18:44:17.966Z,99340.75
2018-08-13T18:49:22.125Z,99335.22
2018-08-13T18:54:25.772Z,99345.86
2018-08-13T18:59:29.461Z,99339.84
2018-08-13T19:04:33.136Z,99344.11
2018-08-13T19:09:36.770Z,99362.40
2018-08-13T19:14:40.465Z,99359.03
2018-08-13T19:19:44.225Z,99362.40
2018-08-13T19:24:49.059Z,99362.69
2018-08-13T19:29:52.684Z,99368.77
2018-08-13T19:34:56.339Z,99368.12
2018-08-13T19:40:00.010Z,99357.80
2018-08-13T19:45:04.223Z,99358.55
2018-08-13T19:50:09.288Z,99364.71
2018-08-13T19:55:14.266Z,99361.68
2018-08-13T20:00:21.526Z,99362.64
2018-08-13T20:05:26.444Z,99367.92
2018-08-13T20:10:30.147Z,99370.63
2018-08-13T20:15:33.877Z,99360.99
2018-08-13T20:20:37.679Z,99366.46
2018-08-13T20:25:41.376Z,99365.45
2018-08-13T20:30:45.036Z,99374.27
2018-08-13T20:35:48.745Z,99370.70
2018-08-13T20:40:52.453Z,99369.19
2018-08-13T20:45:56.230Z,99361.96
2018-08-13T20:50:59.795Z,99376.06
2018-08-13T20:56:03.493Z,99385.38
2018-08-13T21:01:07.313Z,99380.17
2018-08-13T21:06:11.022Z,99381.05
2018-08-13T21:11:14.741Z,99377.81
2018-08-13T21:16:18.648Z,99390.50
2018-08-13T21:21:22.332Z,99396.38
2018-08-13T21:26:26.172Z,99395.32
2018-08-13T21:31:29.844Z,99398.91
2018-08-13T21:36:33.578Z,99390.23
2018-08-13T21:41:37.387Z,99377.53
2018-08-13T21:46:41.069Z,99384.48
2018-08-13T21:51:44.730Z,99388.55
2018-08-13T21:56:48.470Z,99389.91
2018-08-13T22:01:54.412Z,99391.98
2018-08-13T22:06:58.042Z,99395.88
2018-08-13T22:12:01.843Z,99397.39
2018-08-13T22:17:06.256Z,99400.80
2018-08-13T22:22:09.986Z,99400.63
2018-08-13T22:27:13.822Z,99398.42
2018-08-13T22:32:17.518Z,99403.84
2018-08-13T22:37:21.098Z,99409.02
2018-08-13T22:42:24.880Z,99404.73
2018-08-13T22:47:28.542Z,99407.66
2018-08-13T22:52:32.279Z,99394.24
2018-08-13T22:57:36.043Z,99398.31
2018-08-13T23:02:39.651Z,99394.24
2018-08-13T23:07:43.318Z,99385.48
2018-08-13T23:12:48.330Z,99390.05
2018-08-13T23:17:58.734Z,99386.83
2018-08-13T23:23:03.265Z,99394.11
2018-08-13T23:28:10.936Z,99385.61
2018-08-13T23:33:14.582Z,99381.41
2018-08-13T23:38:18.241Z,99375.48
2018-08-13T23:43:21.937Z,99373.97
2018-08-13T23:48:25.609Z,99377.02
2018-08-13T23:53:29.353Z,99382.95
2018-08-13T23:58:33.057Z,99386.16
